Time;durP1;ratioP1;P1;durP2;ratioP2;P2;SDS_P1;SDS_P2;PMS_P1;PMS_P2;Temp;Humidity;BMP_temperature;BMP_pressure;BME280_temperature;BME280_humidity;BME280_pressure;Samples;Min_cycle;Max_cycle;Signal;HPM_P1;HPM_P2
2021/06/26 13:04:47;;;;;;;;;;;;;;;;;;1472082;40;6992;-65
2021/06/26 13:05:50;;;;;;;;;;;;;;;;;;1475376;40;7211;-65
2021/06/26 13:06:57;;;;;;;;;;;;;;;;;;1472567;40;7207;-65
2021/06/26 13:08:06;;;;;;;;;;;;;;;;;;1472877;40;7012;-64
2021/06/26 13:09:08;;;;;;;;;;;;;;;;;;1471337;40;7035;-64
2021/06/26 13:10:11;;;;;;;;;;;;;;;;;;1474912;40;6999;-64
2021/06/26 13:11:14;;;;;;;;;;;;;;;;;;1474628;40;6999;-64
2021/06/26 13:12:20;;;;;;;;;;;;;;;;;;1472295;40;7209;-65
2021/06/26 13:13:25;;;;;;;;;;;;;;;;;;1471921;40;7048;-64
2021/06/26 13:14:28;;;;;;;;;;;;;;;;;;1473838;40;7008;-66
2021/06/26 13:15:30;;;;;;;;;;;;;;;;;;1475115;40;7003;-64
2021/06/26 13:16:34;;;;;;;;;;;;;;;;;;1475461;40;7035;-68
2021/06/26 13:17:36;;;;;;;;;;;;;;;;;;1475243;40;7902;-64
2021/06/26 13:18:38;;;;;;;;;;;;;;;;;;1475614;40;7016;-66
2021/06/26 13:19:41;;;;;;;;;;;;;;;;;;1470567;40;7877;-65
2021/06/26 13:20:59;;;;;;;;;;;;;;;;;;1472516;40;7008;-64
2021/06/26 13:22:02;;;;;;;;;;;;;;;;;;1472612;40;7048;-65
2021/06/26 13:23:04;;;;;;;;;;;;;;;;;;1474339;40;7008;-64
2021/06/26 13:24:06;;;;;;;;;;;;;;;;;;1475088;40;6995;-63
2021/06/26 13:25:12;;;;;;;;;;;;;;;;;;1475256;40;7005;-66
2021/06/26 13:26:14;;;;;;;;;;;;;;;;;;1474866;40;7836;-64
2021/06/26 13:27:18;;;;;;;;;;;;;;;;;;1475151;40;7000;-65
2021/06/26 13:28:20;;;;;;;;;;;;;;;;;;1475074;40;7975;-63
2021/06/26 13:29:23;;;;;;;;;;;;;;;;;;1475012;40;7003;-63
2021/06/26 13:30:26;;;;;;;;;;;;;;;;;;1472715;40;7124;-64
2021/06/26 13:31:29;;;;;;;;;;;;;;;;;;1470976;40;7032;-65
2021/06/26 13:32:31;;;;;;;;;;;;;;;;;;1470720;40;7016;-65
2021/06/26 13:33:34;;;;;;;;;;;;;;;;;;1470572;40;7932;-64
2021/06/26 13:34:36;;;;;;;;;;;;;;;;;;1470419;40;7004;-66
2021/06/26 13:35:39;;;;;;;;;;;;;;;;;;1471425;40;7207;-63
2021/06/26 13:36:41;;;;;;;;;;;;;;;;;;1470932;40;7038;-66
2021/06/26 13:37:44;;;;;;;;;;;;;;;;;;1470548;40;7011;-63
2021/06/26 13:38:46;;;;;;;;;;;;;;;;;;1474126;40;7035;-63
2021/06/26 13:39:48;;;;;;;;;;;;;;;;;;1474948;40;7850;-64
2021/06/26 13:40:51;;;;;;;;;;;;;;;;;;1473961;40;7015;-65
2021/06/26 13:41:53;;;;;;;;;;;;;;;;;;1470878;40;7199;-63
2021/06/26 13:42:55;;;;;;;;;;;;;;;;;;1473272;40;7039;-65
2021/06/26 13:43:59;;;;;;;;;;;;;;;;;;1470743;40;7924;-65
2021/06/26 13:45:02;;;;;;;;;;;;;;;;;;1470579;40;7924;-64
2021/06/26 13:46:05;;;;;;;;;;;;;;;;;;1471258;40;7911;-62
2021/06/26 13:47:07;;;;;;;;;;;;;;;;;;1470269;40;7012;-63
2021/06/26 13:48:10;;;;;;;;;;;;;;;;;;1475061;40;7279;-64
2021/06/26 13:49:13;;;;;;;;;;;;;;;;;;1475089;40;7967;-65
2021/06/26 13:50:16;;;;;;;;;;;;;;;;;;1471900;40;6999;-64
2021/06/26 13:51:19;;;;;;;;;;;;;;;;;;1470931;40;7027;-64
2021/06/26 13:52:21;;;;;;;;;;;;;;;;;;1470959;40;7035;-67
2021/06/26 13:53:24;;;;;;;;;;;;;;;;;;1471001;40;7011;-65
2021/06/26 13:54:27;;;;;;;;;;;;;;;;;;1472886;40;7007;-63
2021/06/26 13:55:30;;;;;;;;;;;;;;;;;;1470843;40;7221;-64
2021/06/26 13:56:33;;;;;;;;;;;;;;;;;;1471784;40;7007;-65
2021/06/26 13:57:35;;;;;;;;;;;;;;;;;;1474933;40;7012;-64
2021/06/26 13:58:38;;;;;;;;;;;;;;;;;;1473051;40;7004;-64
2021/06/26 13:59:40;;;;;;;;;;;;;;;;;;1470736;40;7952;-64
2021/06/26 14:00:42;;;;;;;;;;;;;;;;;;1470885;40;7003;-66
2021/06/26 14:01:45;;;;;;;;;;;;;;;;;;1472327;40;7012;-64
2021/06/26 14:02:48;;;;;;;;;;;;;;;;;;1473688;40;7000;-64
2021/06/26 14:03:51;;;;;;;;;;;;;;;;;;1474980;40;7176;-64
2021/06/26 14:04:53;;;;;;;;;;;;;;;;;;1473975;40;8022;-64
2021/06/26 14:05:56;;;;;;;;;;;;;;;;;;1472333;40;7016;-64
2021/06/26 14:13:09;;;;;;;;;;;;;;;;;;1470537;40;6964;-63
2021/06/26 14:14:13;;;;;;;;;;;;;;;;;;1471237;40;7023;-66
2021/06/26 14:15:33;;;;;;;;;;;;;;;;;;1472701;40;6976;-64
2021/06/26 14:16:35;;;;;;;;;;;;;;;;;;1474800;40;7978;-63
2021/06/26 14:17:38;;;;;;;;;;;;;;;;;;1475017;40;7040;-64
2021/06/26 14:18:42;;;;;;;;;;;;;;;;;;1474440;40;7007;-65
2021/06/26 14:19:44;;;;;;;;;;;;;;;;;;1474458;40;7931;-64
2021/06/26 14:20:46;;;;;;;;;;;;;;;;;;1474828;40;7000;-64
2021/06/26 14:21:49;;;;;;;;;;;;;;;;;;1470452;40;7019;-64
2021/06/26 14:22:52;;;;;;;;;;;;;;;;;;1472033;40;7008;-65
2021/06/26 14:23:54;;;;;;;;;;;;;;;;;;1472239;40;7031;-64
2021/06/26 14:24:57;;;;;;;;;;;;;;;;;;1473363;40;7012;-64
2021/06/26 14:26:00;;;;;;;;;;;;;;;;;;1473342;40;7003;-64
2021/06/26 14:27:02;;;;;;;;;;;;;;;;;;1470659;40;6999;-64
2021/06/26 14:28:05;;;;;;;;;;;;;;;;;;1474286;40;7039;-64
2021/06/26 14:29:07;;;;;;;;;;;;;;;;;;1473517;40;7035;-64
2021/06/26 14:30:10;;;;;;;;;;;;;;;;;;1473050;40;7000;-64
2021/06/26 14:31:21;;;;;;;;;;;;;;;;;;1472590;40;7242;-62
2021/06/26 14:32:24;;;;;;;;;;;;;;;;;;1471815;40;7043;-63
2021/06/26 14:33:26;;;;;;;;;;;;;;;;;;1471745;40;7019;-64
2021/06/26 14:34:29;;;;;;;;;;;;;;;;;;1470605;40;7003;-64
2021/06/26 14:35:31;;;;;;;;;;;;;;;;;;1474801;40;7075;-63
2021/06/26 14:36:34;;;;;;;;;;;;;;;;;;1472641;40;6999;-63
2021/06/26 14:37:37;;;;;;;;;;;;;;;;;;1471928;40;7000;-64
2021/06/26 14:38:39;;;;;;;;;;;;;;;;;;1470403;40;7004;-63
2021/06/26 14:39:42;;;;;;;;;;;;;;;;;;1470880;40;7040;-64
2021/06/26 14:40:44;;;;;;;;;;;;;;;;;;1471700;40;7007;-63
2021/06/26 14:41:46;;;;;;;;;;;;;;;;;;1470916;40;7017;-63
2021/06/26 14:42:49;;;;;;;;;;;;;;;;;;1470938;40;7008;-63
2021/06/26 14:43:51;;;;;;;;;;;;;;;;;;1472300;40;7003;-63
2021/06/26 14:44:54;;;;;;;;;;;;;;;;;;1472986;40;7012;-63
2021/06/26 14:45:56;;;;;;;;;;;;;;;;;;1472232;40;7038;-63
2021/06/26 14:46:58;;;;;;;;;;;;;;;;;;1471636;40;7013;-64
2021/06/26 14:48:01;;;;;;;;;;;;;;;;;;1472183;40;7027;-63
2021/06/26 14:49:03;;;;;;;;;;;;;;;;;;1471575;40;7039;-64
2021/06/26 14:50:07;;;;;;;;;;;;;;;;;;1471476;40;7926;-63
2021/06/26 14:51:09;;;;;;;;;;;;;;;;;;1474359;40;7007;-63
2021/06/26 14:52:12;;;;;;;;;;;;;;;;;;1474096;40;6999;-64
2021/06/26 14:53:14;;;;;;;;;;;;;;;;;;1472949;40;7039;-63
2021/06/26 14:54:17;;;;;;;;;;;;;;;;;;1472612;40;7003;-62
2021/06/26 14:55:19;;;;;;;;;;;;;;;;;;1472948;40;7048;-63
2021/06/26 14:56:22;;;;;;;;;;;;;;;;;;1472471;40;7108;-63
2021/06/26 14:57:24;;;;;;;;;;;;;;;;;;1473934;40;7052;-63
2021/06/26 14:58:27;;;;;;;;;;;;;;;;;;1472086;40;7959;-63
2021/06/26 14:59:29;;;;;;;;;;;;;;;;;;1474179;40;7208;-63
2021/06/26 15:00:32;;;;;;;;;;;;;;;;;;1470819;40;7116;-62
2021/06/26 15:01:34;;;;;;;;;;;;;;;;;;1473814;40;7898;-62
2021/06/26 15:02:37;;;;;;;;;;;;;;;;;;1473255;40;7967;-63
2021/06/26 15:03:40;;;;;;;;;;;;;;;;;;1471275;40;7007;-63
2021/06/26 15:04:43;;;;;;;;;;;;;;;;;;1473629;40;7008;-63
2021/06/26 15:05:45;;;;;;;;;;;;;;;;;;1471667;40;7198;-63
2021/06/26 15:06:47;;;;;;;;;;;;;;;;;;1471757;40;7107;-63
2021/06/26 15:07:50;;;;;;;;;;;;;;;;;;1471156;40;7007;-63
2021/06/26 15:08:52;;;;;;;;;;;;;;;;;;1473068;40;7245;-63
2021/06/26 15:09:55;;;;;;;;;;;;;;;;;;1471945;40;7004;-63
2021/06/26 15:10:57;;;;;;;;;;;;;;;;;;1472639;40;7003;-62
2021/06/26 15:12:00;;;;;;;;;;;;;;;;;;1471694;40;7003;-63
2021/06/26 15:13:02;;;;;;;;;;;;;;;;;;1471624;40;7048;-63
2021/06/26 15:14:05;;;;;;;;;;;;;;;;;;1473039;40;7003;-64
2021/06/26 15:15:08;;;;;;;;;;;;;;;;;;1471349;40;7052;-62
2021/06/26 15:16:10;;;;;;;;;;;;;;;;;;1472324;40;7032;-62
2021/06/26 15:17:16;;;;;;;;;;;;;;;;;;1471534;40;7008;-63
2021/06/26 15:18:18;;;;;;;;;;;;;;;;;;1474915;40;7008;-63
2021/06/26 15:19:21;;;;;;;;;;;;;;;;;;1471501;40;7008;-62
2021/06/26 15:20:24;;;;;;;;;;;;;;;;;;1472182;40;7027;-63
2021/06/26 15:21:26;;;;;;;;;;;;;;;;;;1472391;40;9173;-62
2021/06/26 15:22:29;;;;;;;;;;;;;;;;;;1471490;40;7035;-63
2021/06/26 15:23:31;;;;;;;;;;;;;;;;;;1473912;40;7110;-62
2021/06/26 15:24:33;;;;;;;;;;;;;;;;;;1471002;40;7000;-63
2021/06/26 15:25:36;;;;;;;;;;;;;;;;;;1472913;40;7035;-63
2021/06/26 15:26:39;;;;;;;;;;;;;;;;;;1474673;40;7939;-63
2021/06/26 15:27:42;;;;;;;;;;;;;;;;;;1471283;40;7083;-63
2021/06/26 15:28:44;;;;;;;;;;;;;;;;;;1471581;40;7023;-62
2021/06/26 15:29:46;;;;;;;;;;;;;;;;;;1473081;40;7007;-63
2021/06/26 15:30:49;;;;;;;;;;;;;;;;;;1470451;40;7031;-63
2021/06/26 15:31:52;;;;;;;;;;;;;;;;;;1474305;40;7000;-62
2021/06/26 15:32:54;;;;;;;;;;;;;;;;;;1472440;40;7023;-63
2021/06/26 15:33:57;;;;;;;;;;;;;;;;;;1474274;40;7008;-64
2021/06/26 15:34:59;;;;;;;;;;;;;;;;;;1474319;40;7035;-64
2021/06/26 15:36:02;;;;;;;;;;;;;;;;;;1474615;40;8288;-64
2021/06/26 15:37:05;;;;;;;;;;;;;;;;;;1473908;40;7008;-63
2021/06/26 15:38:09;;;;;;;;;;;;;;;;;;1470120;40;6999;-63
2021/06/26 15:39:13;;;;;;;;;;;;;;;;;;1473895;40;7008;-62
2021/06/26 15:40:15;;;;;;;;;;;;;;;;;;1471891;40;7015;-63
2021/06/26 15:41:17;;;;;;;;;;;;;;;;;;1474796;40;7927;-61
2021/06/26 15:42:20;;;;;;;;;;;;;;;;;;1470994;40;7016;-63
2021/06/26 15:43:23;;;;;;;;;;;;;;;;;;1472584;40;7116;-62
2021/06/26 15:44:25;;;;;;;;;;;;;;;;;;1471677;40;7920;-64
2021/06/26 15:45:27;;;;;;;;;;;;;;;;;;1470588;40;7004;-63
2021/06/26 15:46:30;;;;;;;;;;;;;;;;;;1471108;40;7067;-62
2021/06/26 15:47:33;;;;;;;;;;;;;;;;;;1471984;40;7003;-63
2021/06/26 15:48:36;;;;;;;;;;;;;;;;;;1471333;40;7000;-61
2021/06/26 15:49:38;;;;;;;;;;;;;;;;;;1470463;40;7013;-62
2021/06/26 15:50:41;;;;;;;;;;;;;;;;;;1470220;40;7011;-62
2021/06/26 15:51:43;;;;;;;;;;;;;;;;;;1470533;40;7004;-62
2021/06/26 15:52:46;;;;;;;;;;;;;;;;;;1470298;40;7003;-62
2021/06/26 15:53:50;;;;;;;;;;;;;;;;;;1473330;40;7012;-62
2021/06/26 15:54:52;;;;;;;;;;;;;;;;;;1470837;40;7027;-64
2021/06/26 15:56:13;;;;;;;;;;;;;;;;;;1470586;40;7183;-63
2021/06/26 15:57:16;;;;;;;;;;;;;;;;;;1470638;40;7216;-63
2021/06/26 16:22:06;;;;;;;;;;;;;;;;;;1468551;40;7939;-64
2021/06/26 16:23:10;;;;;;;;;;;;;;;;;;1470288;40;7000;-63
2021/06/26 16:24:12;;;;;;;;;;;;;;;;;;1470047;40;7007;-63
2021/06/26 16:25:16;;;;;;;;;;;;;;;;;;1470081;40;7012;-65
2021/06/26 16:26:18;;;;;;;;;;;;;;;;;;1469956;40;7025;-65
2021/06/26 16:27:21;;;;;;;;;;;;;;;;;;1465392;40;7036;-64
2021/06/26 16:28:23;;;;;;;;;;;;;;;;;;1466132;40;7047;-64
2021/06/26 16:29:26;;;;;;;;;;;;;;;;;;1469722;40;7003;-60
2021/06/26 16:30:28;;;;;;;;;;;;;;;;;;1469994;40;7007;-60
2021/06/26 16:31:31;;;;;;;;;;;;;;;;;;1467007;40;7259;-60
2021/06/26 16:32:33;;;;;;;;;;;;;;;;;;1468027;40;7000;-60
2021/06/26 16:33:36;;;;;;;;;;;;;;;;;;1466063;40;7109;-60
2021/06/26 16:34:38;;;;;;;;;;;;;;;;;;1466314;40;6999;-60
2021/06/26 16:35:42;;;;;;;;;;;;;;;;;;1466828;40;7115;-60
2021/06/26 16:36:47;;;;;;;;;;;;;;;;;;1466312;40;7000;-60
2021/06/26 16:38:04;;;;;;;;;;;;;;;;;;1465893;40;7908;-60
2021/06/26 16:39:07;;;;;;;;;;;;;;;;;;1465857;40;7040;-60
2021/06/26 16:40:12;;;;;;;;;;;;;;;;;;1469322;40;7920;-60
2021/06/26 16:41:14;;;;;;;;;;;;;;;;;;1470350;40;7007;-59
2021/06/26 16:42:18;;;;;;;;;;;;;;;;;;1466555;40;7008;-59
2021/06/26 16:43:25;;;;;;;;;;;;;;;;;;1467699;40;7000;-59
2021/06/26 16:44:27;;;;;;;;;;;;;;;;;;1465816;40;7009;-59
2021/06/26 16:45:30;;;;;;;;;;;;;;;;;;1466184;40;7008;-60
2021/06/26 16:46:33;;;;;;;;;;;;;;;;;;1466202;40;7972;-59
2021/06/26 16:47:36;;;;;;;;;;;;;;;;;;1466382;40;7008;-60
2021/06/26 16:48:38;;;;;;;;;;;;;;;;;;1466091;40;7055;-59
2021/06/26 16:49:41;;;;;;;;;;;;;;;;;;1466633;40;7000;-60
2021/06/26 16:50:44;;;;;;;;;;;;;;;;;;1470586;40;7035;-60
2021/06/26 16:51:46;;;;;;;;;;;;;;;;;;1470254;40;7220;-60
2021/06/26 16:52:49;;;;;;;;;;;;;;;;;;1470301;40;7011;-59
2021/06/26 16:53:51;;;;;;;;;;;;;;;;;;1471095;40;7016;-60
2021/06/26 16:54:54;;;;;;;;;;;;;;;;;;1469525;40;7968;-59
2021/06/26 16:55:58;;;;;;;;;;;;;;;;;;1467600;40;7024;-60
2021/06/26 16:57:00;;;;;;;;;;;;;;;;;;1466964;40;7047;-60
2021/06/26 16:58:03;;;;;;;;;;;;;;;;;;1466756;40;7004;-60
2021/06/26 16:59:06;;;;;;;;;;;;;;;;;;1466837;40;7080;-60
2021/06/26 17:00:08;;;;;;;;;;;;;;;;;;1466694;40;7043;-60
2021/06/26 17:01:11;;;;;;;;;;;;;;;;;;1465584;40;7011;-60
2021/06/26 17:02:14;;;;;;;;;;;;;;;;;;1466690;40;7218;-60
2021/06/26 17:03:17;;;;;;;;;;;;;;;;;;1466844;40;7035;-60
2021/06/26 17:04:20;;;;;;;;;;;;;;;;;;1469645;40;7035;-60
2021/06/26 17:05:22;;;;;;;;;;;;;;;;;;1470759;40;7920;-60
2021/06/26 17:06:25;;;;;;;;;;;;;;;;;;1470592;40;7013;-60
2021/06/26 17:07:32;;;;;;;;;;;;;;;;;;1470820;40;7035;-60
2021/06/26 17:08:34;;;;;;;;;;;;;;;;;;1467500;40;7016;-60
2021/06/26 17:09:37;;;;;;;;;;;;;;;;;;1466526;40;7112;-60
2021/06/26 17:10:39;;;;;;;;;;;;;;;;;;1466500;40;7013;-60
2021/06/26 17:11:42;;;;;;;;;;;;;;;;;;1466530;40;7012;-60
2021/06/26 17:12:45;;;;;;;;;;;;;;;;;;1466715;40;7025;-60
2021/06/26 17:13:47;;;;;;;;;;;;;;;;;;1466300;40;7004;-60
2021/06/26 17:14:50;;;;;;;;;;;;;;;;;;1467673;40;7019;-60
2021/06/26 17:15:52;;;;;;;;;;;;;;;;;;1466759;40;7000;-60
2021/06/26 17:16:55;;;;;;;;;;;;;;;;;;1466673;40;7008;-59
2021/06/26 17:17:57;;;;;;;;;;;;;;;;;;1466252;40;7017;-60
2021/06/26 17:19:00;;;;;;;;;;;;;;;;;;1466512;40;7115;-60
2021/06/26 17:20:03;;;;;;;;;;;;;;;;;;1467096;40;7037;-60
2021/06/26 17:21:05;;;;;;;;;;;;;;;;;;1468033;40;7000;-60
2021/06/26 17:22:08;;;;;;;;;;;;;;;;;;1470557;40;6999;-60
2021/06/26 17:23:10;;;;;;;;;;;;;;;;;;1469728;40;7188;-60
2021/06/26 17:24:15;;;;;;;;;;;;;;;;;;1470094;40;7885;-60
2021/06/26 17:25:17;;;;;;;;;;;;;;;;;;1470516;40;8002;-60
2021/06/26 17:26:20;;;;;;;;;;;;;;;;;;1477507;40;7000;-60
2021/06/26 17:27:22;;;;;;;;;;;;;;;;;;1478324;40;7015;-60
2021/06/26 17:28:27;;;;;;;;;;;;;;;;;;1475017;40;7227;-59
2021/06/26 17:29:30;;;;;;;;;;;;;;;;;;1470878;40;7008;-60
2021/06/26 17:30:33;;;;;;;;;;;;;;;;;;1470606;40;7108;-60
2021/06/26 17:31:36;;;;;;;;;;;;;;;;;;1470628;40;7012;-59
2021/06/26 17:32:38;;;;;;;;;;;;;;;;;;1474653;40;6999;-60
2021/06/26 17:33:41;;;;;;;;;;;;;;;;;;1474571;40;7008;-60
2021/06/26 17:34:43;;;;;;;;;;;;;;;;;;1470551;40;7112;-60
2021/06/26 17:35:46;;;;;;;;;;;;;;;;;;1472259;40;7009;-60
2021/06/26 17:36:48;;;;;;;;;;;;;;;;;;1474956;40;7035;-60
2021/06/26 17:37:50;;;;;;;;;;;;;;;;;;1469898;40;7000;-60
2021/06/26 17:38:53;;;;;;;;;;;;;;;;;;1471411;40;7057;-60
2021/06/26 17:39:55;;;;;;;;;;;;;;;;;;1470815;40;7967;-60
2021/06/26 17:40:58;;;;;;;;;;;;;;;;;;1470709;40;7882;-60
2021/06/26 17:42:00;;;;;;;;;;;;;;;;;;1471241;40;7112;-60
2021/06/26 17:43:03;;;;;;;;;;;;;;;;;;1470405;40;7952;-60
2021/06/26 17:44:05;;;;;;;;;;;;;;;;;;1470466;40;7000;-60
2021/06/26 17:45:08;;;;;;;;;;;;;;;;;;1469926;40;7031;-60
2021/06/26 17:46:11;;;;;;;;;;;;;;;;;;1470543;40;7039;-60
2021/06/26 17:47:13;;;;;;;;;;;;;;;;;;1470531;40;7000;-60
2021/06/26 17:48:16;;;;;;;;;;;;;;;;;;1471009;40;7004;-60
2021/06/26 17:49:18;;;;;;;;;;;;;;;;;;1470978;40;7008;-60
2021/06/26 17:50:23;;;;;;;;;;;;;;;;;;1471071;40;7867;-60
2021/06/26 17:51:26;;;;;;;;;;;;;;;;;;1470968;40;7920;-60
2021/06/26 17:52:28;;;;;;;;;;;;;;;;;;1470907;40;7013;-59
2021/06/26 17:53:31;;;;;;;;;;;;;;;;;;1470765;40;7004;-60
2021/06/26 17:54:34;;;;;;;;;;;;;;;;;;1472561;40;7017;-60
2021/06/26 17:55:37;;;;;;;;;;;;;;;;;;1471916;40;7020;-60
2021/06/26 17:56:59;;;;;;;;;;;;;;;;;;1475478;40;7135;-60
2021/06/26 17:58:02;;;;;;;;;;;;;;;;;;1474828;40;7296;-60
2021/06/26 17:59:09;;;;;;;;;;;;;;;;;;1474433;40;7015;-60
2021/06/26 18:00:12;;;;;;;;;;;;;;;;;;1475079;40;7067;-60
2021/06/26 18:01:17;;;;;;;;;;;;;;;;;;1473952;40;7049;-60
2021/06/26 18:02:20;;;;;;;;;;;;;;;;;;1475264;40;7047;-60
2021/06/26 18:03:23;;;;;;;;;;;;;;;;;;1471795;40;8173;-60
2021/06/26 18:04:25;;;;;;;;;;;;;;;;;;1474788;40;6999;-60
2021/06/26 18:05:30;;;;;;;;;;;;;;;;;;1474682;40;7230;-60
2021/06/26 18:06:33;;;;;;;;;;;;;;;;;;1474459;40;7031;-60
2021/06/26 18:07:36;;;;;;;;;;;;;;;;;;1466813;40;6999;-60
2021/06/26 18:08:38;;;;;;;;;;;;;;;;;;1469969;40;6999;-60
2021/06/26 18:09:41;;;;;;;;;;;;;;;;;;1468838;40;7009;-60
2021/06/26 18:10:43;;;;;;;;;;;;;;;;;;1469159;40;7079;-60
2021/06/26 18:11:46;;;;;;;;;;;;;;;;;;1469635;40;7039;-60
2021/06/26 18:12:50;;;;;;;;;;;;;;;;;;1468824;40;7016;-60
2021/06/26 18:13:52;;;;;;;;;;;;;;;;;;1470064;40;7211;-60
2021/06/26 18:14:55;;;;;;;;;;;;;;;;;;1469243;40;7947;-60
2021/06/26 18:15:58;;;;;;;;;;;;;;;;;;1469953;40;7008;-60
2021/06/26 18:17:00;;;;;;;;;;;;;;;;;;1473919;40;7055;-60
2021/06/26 18:18:03;;;;;;;;;;;;;;;;;;1473654;40;7003;-60
2021/06/26 18:19:06;;;;;;;;;;;;;;;;;;1474761;40;7009;-60
2021/06/26 18:20:10;;;;;;;;;;;;;;;;;;1468423;40;7004;-60
2021/06/26 18:21:12;;;;;;;;;;;;;;;;;;1469714;40;7035;-60
2021/06/26 18:22:15;;;;;;;;;;;;;;;;;;1470578;40;7039;-60
2021/06/26 18:23:18;;;;;;;;;;;;;;;;;;1468969;40;7007;-60
2021/06/26 18:24:20;;;;;;;;;;;;;;;;;;1469092;40;7928;-60
2021/06/26 18:25:23;;;;;;;;;;;;;;;;;;1471042;40;7063;-60
2021/06/26 18:26:25;;;;;;;;;;;;;;;;;;1468724;40;7959;-60
2021/06/26 18:27:29;;;;;;;;;;;;;;;;;;1473047;40;7016;-59
2021/06/26 18:28:38;;;;;;;;;;;;;;;;;;1469086;40;7052;-60
2021/06/26 18:29:41;;;;;;;;;;;;;;;;;;1471096;40;6999;-60
2021/06/26 18:30:43;;;;;;;;;;;;;;;;;;1468427;40;7032;-60
2021/06/26 18:31:46;;;;;;;;;;;;;;;;;;1471403;40;7007;-60
2021/06/26 18:32:49;;;;;;;;;;;;;;;;;;1470071;40;7024;-60
2021/06/26 18:33:51;;;;;;;;;;;;;;;;;;1470063;40;7031;-60
2021/06/26 18:34:54;;;;;;;;;;;;;;;;;;1469621;40;7027;-60
2021/06/26 18:35:57;;;;;;;;;;;;;;;;;;1469761;40;7125;-60
2021/06/26 18:37:00;;;;;;;;;;;;;;;;;;1469716;40;7051;-60
2021/06/26 18:38:02;;;;;;;;;;;;;;;;;;1469934;40;7015;-60
2021/06/26 18:39:05;;;;;;;;;;;;;;;;;;1470176;40;7916;-60
2021/06/26 18:40:09;;;;;;;;;;;;;;;;;;1474643;40;7027;-60
2021/06/26 18:41:11;;;;;;;;;;;;;;;;;;1474578;40;7044;-60
2021/06/26 18:42:14;;;;;;;;;;;;;;;;;;1470198;40;7035;-60
2021/06/26 18:43:17;;;;;;;;;;;;;;;;;;1470730;40;7027;-60
2021/06/26 18:44:19;;;;;;;;;;;;;;;;;;1470003;40;7039;-60
2021/06/26 18:45:21;;;;;;;;;;;;;;;;;;1469903;40;7291;-60
2021/06/26 18:46:24;;;;;;;;;;;;;;;;;;1468680;40;7000;-60
2021/06/26 18:47:26;;;;;;;;;;;;;;;;;;1470082;40;7108;-60
2021/06/26 18:48:29;;;;;;;;;;;;;;;;;;1471356;40;7063;-59
2021/06/26 18:49:32;;;;;;;;;;;;;;;;;;1469913;40;7008;-60
2021/06/26 18:50:35;;;;;;;;;;;;;;;;;;1470606;40;7603;-59
2021/06/26 18:51:38;;;;;;;;;;;;;;;;;;1470720;40;7007;-60
2021/06/26 18:52:41;;;;;;;;;;;;;;;;;;1471857;40;7008;-60
2021/06/26 18:53:43;;;;;;;;;;;;;;;;;;1473622;40;7072;-60
2021/06/26 18:54:46;;;;;;;;;;;;;;;;;;1470660;40;7035;-60
2021/06/26 18:56:27;;;;;;;;;;;;;;;;;;1472863;40;7988;-60
2021/06/26 18:57:20;;;;;;;;;;;;;;;;;;1471494;40;7116;-59
2021/06/26 18:58:23;;;;;;;;;;;;;;;;;;1470604;40;7031;-59
2021/06/26 18:59:25;;;;;;;;;;;;;;;;;;1470595;40;7008;-60
2021/06/26 19:00:28;;;;;;;;;;;;;;;;;;1470496;40;7071;-60
2021/06/26 19:01:30;;;;;;;;;;;;;;;;;;1472403;40;7031;-60
2021/06/26 19:02:34;;;;;;;;;;;;;;;;;;1474514;40;7004;-59
2021/06/26 19:03:36;;;;;;;;;;;;;;;;;;1474155;40;7050;-60
2021/06/26 19:04:39;;;;;;;;;;;;;;;;;;1474245;40;7161;-60
2021/06/26 19:05:41;;;;;;;;;;;;;;;;;;1470791;40;7015;-60
2021/06/26 19:06:44;;;;;;;;;;;;;;;;;;1470525;40;7055;-60
2021/06/26 19:07:46;;;;;;;;;;;;;;;;;;1472988;40;7008;-60
2021/06/26 19:08:52;;;;;;;;;;;;;;;;;;1472361;40;7035;-60
2021/06/26 19:09:55;;;;;;;;;;;;;;;;;;1474337;40;7135;-60
2021/06/26 19:10:58;;;;;;;;;;;;;;;;;;1470182;40;7923;-60
2021/06/26 19:12:00;;;;;;;;;;;;;;;;;;1471305;40;7000;-60
2021/06/26 19:13:03;;;;;;;;;;;;;;;;;;1474496;40;7047;-60
2021/06/26 19:14:05;;;;;;;;;;;;;;;;;;1474525;40;7007;-60
2021/06/26 19:15:08;;;;;;;;;;;;;;;;;;1472097;40;7008;-59
2021/06/26 19:16:11;;;;;;;;;;;;;;;;;;1469776;40;7214;-60
2021/06/26 19:17:13;;;;;;;;;;;;;;;;;;1470627;40;7035;-60
2021/06/26 19:18:16;;;;;;;;;;;;;;;;;;1469966;40;7043;-60
2021/06/26 19:19:18;;;;;;;;;;;;;;;;;;1473821;40;7000;-60
2021/06/26 19:20:21;;;;;;;;;;;;;;;;;;1468687;40;7008;-60
2021/06/26 19:21:24;;;;;;;;;;;;;;;;;;1468751;40;7003;-60
2021/06/26 19:22:26;;;;;;;;;;;;;;;;;;1469443;40;7030;-60
2021/06/26 19:23:29;;;;;;;;;;;;;;;;;;1472502;40;7016;-60
2021/06/26 19:24:31;;;;;;;;;;;;;;;;;;1472091;40;7003;-59
2021/06/26 19:25:35;;;;;;;;;;;;;;;;;;1469164;40;7031;-60
2021/06/26 19:26:38;;;;;;;;;;;;;;;;;;1468934;40;7003;-60
2021/06/26 19:27:41;;;;;;;;;;;;;;;;;;1468298;40;7003;-60
2021/06/26 19:28:43;;;;;;;;;;;;;;;;;;1467268;40;7184;-60
2021/06/26 19:29:46;;;;;;;;;;;;;;;;;;1468231;40;7916;-60
2021/06/26 19:30:50;;;;;;;;;;;;;;;;;;1467067;40;7007;-60
2021/06/26 19:31:52;;;;;;;;;;;;;;;;;;1468183;40;7063;-60
2021/06/26 19:32:55;;;;;;;;;;;;;;;;;;1463562;40;7551;-63
2021/06/26 19:33:57;;;;;;;;;;;;;;;;;;1465480;40;7016;-60
2021/06/26 19:35:00;;;;;;;;;;;;;;;;;;1468897;40;7007;-60
2021/06/26 19:36:03;;;;;;;;;;;;;;;;;;1469425;40;7040;-60
2021/06/26 19:37:05;;;;;;;;;;;;;;;;;;1470773;40;7031;-60
2021/06/26 19:38:07;;;;;;;;;;;;;;;;;;1467922;40;7106;-60
2021/06/26 19:39:10;;;;;;;;;;;;;;;;;;1468497;40;7453;-60
2021/06/26 19:40:13;;;;;;;;;;;;;;;;;;1467399;40;7004;-60
2021/06/26 19:41:16;;;;;;;;;;;;;;;;;;1468488;40;7047;-60
2021/06/26 19:42:18;;;;;;;;;;;;;;;;;;1468065;40;7035;-60
2021/06/26 19:43:20;;;;;;;;;;;;;;;;;;1467915;40;7000;-60
2021/06/26 19:44:23;;;;;;;;;;;;;;;;;;1469135;40;7203;-60
2021/06/26 19:45:26;;;;;;;;;;;;;;;;;;1469572;40;7067;-59
2021/06/26 19:46:28;;;;;;;;;;;;;;;;;;1467210;40;7004;-60
2021/06/26 19:47:31;;;;;;;;;;;;;;;;;;1468315;40;7004;-60
2021/06/26 19:48:34;;;;;;;;;;;;;;;;;;1467243;40;7004;-60
2021/06/26 19:49:37;;;;;;;;;;;;;;;;;;1465467;40;7008;-60
2021/06/26 19:50:39;;;;;;;;;;;;;;;;;;1467487;40;7071;-60
2021/06/26 19:51:42;;;;;;;;;;;;;;;;;;1470221;40;7107;-60
2021/06/26 19:52:46;;;;;;;;;;;;;;;;;;1469988;40;7015;-60
2021/06/26 19:53:49;;;;;;;;;;;;;;;;;;1470955;40;7020;-59
2021/06/26 19:54:51;;;;;;;;;;;;;;;;;;1470129;40;7000;-60
2021/06/26 19:55:59;;;;;;;;;;;;;;;;;;1470077;40;7028;-60
2021/06/26 19:57:01;;;;;;;;;;;;;;;;;;1470064;40;7053;-60
2021/06/26 19:58:04;;;;;;;;;;;;;;;;;;1469610;40;6999;-60
2021/06/26 19:59:06;;;;;;;;;;;;;;;;;;1469461;40;7188;-60
2021/06/26 20:00:10;;;;;;;;;;;;;;;;;;1468555;40;7027;-60
2021/06/26 20:01:13;;;;;;;;;;;;;;;;;;1469187;40;7035;-59
2021/06/26 20:02:16;;;;;;;;;;;;;;;;;;1469919;40;7000;-60
2021/06/26 20:03:20;;;;;;;;;;;;;;;;;;1470242;40;7039;-60
2021/06/26 20:04:22;;;;;;;;;;;;;;;;;;1468899;40;7039;-59
2021/06/26 20:05:25;;;;;;;;;;;;;;;;;;1468528;40;7944;-60
2021/06/26 20:06:27;;;;;;;;;;;;;;;;;;1471214;40;7131;-60
2021/06/26 20:07:29;;;;;;;;;;;;;;;;;;1471316;40;7080;-60
2021/06/26 20:08:32;;;;;;;;;;;;;;;;;;1470222;40;7863;-60
2021/06/26 20:09:35;;;;;;;;;;;;;;;;;;1471407;40;7039;-60
2021/06/26 20:10:38;;;;;;;;;;;;;;;;;;1467929;40;7008;-60
2021/06/26 20:11:41;;;;;;;;;;;;;;;;;;1469248;40;9632;-60
2021/06/26 20:12:44;;;;;;;;;;;;;;;;;;1469058;40;7156;-60
2021/06/26 20:13:47;;;;;;;;;;;;;;;;;;1470169;40;7012;-60
2021/06/26 20:14:49;;;;;;;;;;;;;;;;;;1470274;40;7019;-60
2021/06/26 20:15:52;;;;;;;;;;;;;;;;;;1466758;40;7126;-60
2021/06/26 20:16:54;;;;;;;;;;;;;;;;;;1467172;40;7008;-60
2021/06/26 20:17:57;;;;;;;;;;;;;;;;;;1470486;40;7016;-60
2021/06/26 20:18:59;;;;;;;;;;;;;;;;;;1470672;40;7210;-60
2021/06/26 20:20:03;;;;;;;;;;;;;;;;;;1470774;40;7004;-60
2021/06/26 20:21:06;;;;;;;;;;;;;;;;;;1468534;40;7035;-60
2021/06/26 20:22:09;;;;;;;;;;;;;;;;;;1469743;40;7003;-60
2021/06/26 20:23:11;;;;;;;;;;;;;;;;;;1470470;40;7016;-60
2021/06/26 20:24:13;;;;;;;;;;;;;;;;;;1470122;40;7043;-60
2021/06/26 20:25:16;;;;;;;;;;;;;;;;;;1470059;40;8545;-60
2021/06/26 20:26:18;;;;;;;;;;;;;;;;;;1470274;40;7007;-59
2021/06/26 20:27:21;;;;;;;;;;;;;;;;;;1470512;40;7231;-60
2021/06/26 20:28:23;;;;;;;;;;;;;;;;;;1472579;40;7035;-60
2021/06/26 20:29:29;;;;;;;;;;;;;;;;;;1474215;40;7020;-60
2021/06/26 20:30:31;;;;;;;;;;;;;;;;;;1474391;40;7007;-60
2021/06/26 20:31:34;;;;;;;;;;;;;;;;;;1474222;40;7013;-60
2021/06/26 20:32:38;;;;;;;;;;;;;;;;;;1474123;40;6999;-60
2021/06/26 20:33:40;;;;;;;;;;;;;;;;;;1470106;40;7221;-60
2021/06/26 20:34:43;;;;;;;;;;;;;;;;;;1470705;40;7216;-60
2021/06/26 20:35:45;;;;;;;;;;;;;;;;;;1470454;40;7195;-60
2021/06/26 20:36:48;;;;;;;;;;;;;;;;;;1470590;40;7965;-60
2021/06/26 20:37:50;;;;;;;;;;;;;;;;;;1470042;40;7103;-60
2021/06/26 20:38:53;;;;;;;;;;;;;;;;;;1469480;40;7853;-60
2021/06/26 20:39:55;;;;;;;;;;;;;;;;;;1469131;40;7068;-60
2021/06/26 20:40:57;;;;;;;;;;;;;;;;;;1469356;40;7004;-60
2021/06/26 20:42:00;;;;;;;;;;;;;;;;;;1470217;40;6996;-60
2021/06/26 20:43:02;;;;;;;;;;;;;;;;;;1469591;40;7047;-60
2021/06/26 20:44:05;;;;;;;;;;;;;;;;;;1469141;40;6996;-60
2021/06/26 20:45:09;;;;;;;;;;;;;;;;;;1468995;40;7035;-60
2021/06/26 20:46:12;;;;;;;;;;;;;;;;;;1469009;40;6999;-60
2021/06/26 20:47:14;;;;;;;;;;;;;;;;;;1469555;40;7012;-60
2021/06/26 20:48:17;;;;;;;;;;;;;;;;;;1468850;40;7008;-60
2021/06/26 20:49:19;;;;;;;;;;;;;;;;;;1472668;40;7027;-59
2021/06/26 20:50:22;;;;;;;;;;;;;;;;;;1468609;40;7003;-60
2021/06/26 20:51:25;;;;;;;;;;;;;;;;;;1470758;40;7031;-60
2021/06/26 20:52:28;;;;;;;;;;;;;;;;;;1469191;40;7008;-60